sensor_id;sensor_type;location;lat;lon;timestamp;temperature;humidity
41722;DHT22;27407;24.142;-110.310;2023-03-01T00:01:25;25.80;63.10
41722;DHT22;27407;24.142;-110.310;2023-03-01T00:03:56;25.00;63.60
41722;DHT22;27407;24.142;-110.310;2023-03-01T00:06:24;24.90;64.50
41722;DHT22;27407;24.142;-110.310;2023-03-01T00:08:51;24.80;64.50
41722;DHT22;27407;24.142;-110.310;2023-03-01T00:11:28;24.70;65.30
41722;DHT22;27407;24.142;-110.310;2023-03-01T00:13:57;23.70;66.10
41722;DHT22;27407;24.142;-110.310;2023-03-01T00:16:37;25.20;65.80
41722;DHT22;27407;24.142;-110.310;2023-03-01T00:19:09;26.30;67.10
41722;DHT22;27407;24.142;-110.310;2023-03-01T00:21:37;24.70;63.30
41722;DHT22;27407;24.142;-110.310;2023-03-01T00:24:04;25.00;63.10
41722;DHT22;27407;24.142;-110.310;2023-03-01T00:28:59;25.00;64.40
41722;DHT22;27407;24.142;-110.310;2023-03-01T00:31:28;24.80;65.60
41722;DHT22;27407;24.142;-110.310;2023-03-01T00:33:57;24.70;65.90
41722;DHT22;27407;24.142;-110.310;2023-03-01T00:36:33;24.50;65.90
41722;DHT22;27407;24.142;-110.310;2023-03-01T00:39:00;24.40;66.90
41722;DHT22;27407;24.142;-110.310;2023-03-01T00:41:30;24.10;65.60
41722;DHT22;27407;24.142;-110.310;2023-03-01T00:43:57;23.80;66.10
41722;DHT22;27407;24.142;-110.310;2023-03-01T00:46:26;23.80;65.40
41722;DHT22;27407;24.142;-110.310;2023-03-01T00:48:53;25.00;64.50
41722;DHT22;27407;24.142;-110.310;2023-03-01T00:51:22;23.60;63.50
41722;DHT22;27407;24.142;-110.310;2023-03-01T00:54:08;23.60;64.10
41722;DHT22;27407;24.142;-110.310;2023-03-01T00:59:02;23.70;64.40
41722;DHT22;27407;24.142;-110.310;2023-03-01T01:01:30;23.60;64.80
41722;DHT22;27407;24.142;-110.310;2023-03-01T01:04:00;23.30;64.80
41722;DHT22;27407;24.142;-110.310;2023-03-01T01:06:33;21.90;64.50
41722;DHT22;27407;24.142;-110.310;2023-03-01T01:09:02;23.60;66.10
41722;DHT22;27407;24.142;-110.310;2023-03-01T01:11:29;22.60;66.40
41722;DHT22;27407;24.142;-110.310;2023-03-01T01:16:24;21.90;66.90
41722;DHT22;27407;24.142;-110.310;2023-03-01T01:18:51;22.20;67.40
41722;DHT22;27407;24.142;-110.310;2023-03-01T01:21:21;22.00;67.90
41722;DHT22;27407;24.142;-110.310;2023-03-01T01:23:50;21.70;68.30
41722;DHT22;27407;24.142;-110.310;2023-03-01T01:26:23;21.70;69.60
41722;DHT22;27407;24.142;-110.310;2023-03-01T01:28:50;21.90;70.60
41722;DHT22;27407;24.142;-110.310;2023-03-01T01:31:18;21.10;69.60
41722;DHT22;27407;24.142;-110.310;2023-03-01T01:33:45;21.40;70.20
41722;DHT22;27407;24.142;-110.310;2023-03-01T01:38:39;21.10;70.30
41722;DHT22;27407;24.142;-110.310;2023-03-01T01:41:09;21.10;70.40
41722;DHT22;27407;24.142;-110.310;2023-03-01T01:43:43;20.80;70.30
41722;DHT22;27407;24.142;-110.310;2023-03-01T01:46:20;20.90;70.80
41722;DHT22;27407;24.142;-110.310;2023-03-01T01:48:52;20.80;70.60
41722;DHT22;27407;24.142;-110.310;2023-03-01T01:51:25;19.90;71.50
41722;DHT22;27407;24.142;-110.310;2023-03-01T01:53:58;20.50;71.00
41722;DHT22;27407;24.142;-110.310;2023-03-01T01:56:27;20.70;70.90
41722;DHT22;27407;24.142;-110.310;2023-03-01T01:58:56;20.60;71.30
41722;DHT22;27407;24.142;-110.310;2023-03-01T02:06:31;20.40;70.90
41722;DHT22;27407;24.142;-110.310;2023-03-01T02:09:10;20.30;71.40
41722;DHT22;27407;24.142;-110.310;2023-03-01T02:11:38;20.20;72.20
41722;DHT22;27407;24.142;-110.310;2023-03-01T02:14:05;20.20;72.40
41722;DHT22;27407;24.142;-110.310;2023-03-01T02:16:33;20.20;72.80
41722;DHT22;27407;24.142;-110.310;2023-03-01T02:26:54;20.10;73.60
41722;DHT22;27407;24.142;-110.310;2023-03-01T02:29:23;20.00;73.70
41722;DHT22;27407;24.142;-110.310;2023-03-01T02:31:51;20.00;73.70
41722;DHT22;27407;24.142;-110.310;2023-03-01T02:34:23;19.90;73.80
41722;DHT22;27407;24.142;-110.310;2023-03-01T02:37:09;19.80;73.70
41722;DHT22;27407;24.142;-110.310;2023-03-01T02:39:42;19.60;72.70
41722;DHT22;27407;24.142;-110.310;2023-03-01T02:42:16;19.80;72.60
41722;DHT22;27407;24.142;-110.310;2023-03-01T02:52:13;19.70;72.80
41722;DHT22;27407;24.142;-110.310;2023-03-01T02:57:28;21.30;74.40
41722;DHT22;27407;24.142;-110.310;2023-03-01T02:59:57;19.50;73.40
41722;DHT22;27407;24.142;-110.310;2023-03-01T03:02:29;19.20;73.60
41722;DHT22;27407;24.142;-110.310;2023-03-01T03:05:10;19.30;74.40
41722;DHT22;27407;24.142;-110.310;2023-03-01T03:07:41;19.70;74.40
41722;DHT22;27407;24.142;-110.310;2023-03-01T03:10:11;19.30;75.00
41722;DHT22;27407;24.142;-110.310;2023-03-01T03:12:39;17.70;74.70
41722;DHT22;27407;24.142;-110.310;2023-03-01T03:15:07;19.10;76.80
41722;DHT22;27407;24.142;-110.310;2023-03-01T03:17:36;19.10;77.00
41722;DHT22;27407;24.142;-110.310;2023-03-01T03:20:07;19.00;77.40
41722;DHT22;27407;24.142;-110.310;2023-03-01T03:22:40;19.20;78.20
41722;DHT22;27407;24.142;-110.310;2023-03-01T03:25:08;19.00;78.50
41722;DHT22;27407;24.142;-110.310;2023-03-01T03:27:37;18.70;79.30
41722;DHT22;27407;24.142;-110.310;2023-03-01T03:30:06;17.50;78.80
41722;DHT22;27407;24.142;-110.310;2023-03-01T03:32:42;18.00;79.60
41722;DHT22;27407;24.142;-110.310;2023-03-01T03:35:39;18.60;80.30
41722;DHT22;27407;24.142;-110.310;2023-03-01T03:38:08;18.60;80.20
41722;DHT22;27407;24.142;-110.310;2023-03-01T03:40:45;18.50;80.10
41722;DHT22;27407;24.142;-110.310;2023-03-01T03:43:22;18.20;80.60
41722;DHT22;27407;24.142;-110.310;2023-03-01T03:45:50;18.40;80.50
41722;DHT22;27407;24.142;-110.310;2023-03-01T03:48:18;18.40;80.20
41722;DHT22;27407;24.142;-110.310;2023-03-01T03:50:50;18.40;80.20
41722;DHT22;27407;24.142;-110.310;2023-03-01T03:53:17;18.40;80.40
41722;DHT22;27407;24.142;-110.310;2023-03-01T03:58:11;17.80;80.20
41722;DHT22;27407;24.142;-110.310;2023-03-01T04:00:41;16.90;79.70
41722;DHT22;27407;24.142;-110.310;2023-03-01T04:03:09;18.10;80.80
41722;DHT22;27407;24.142;-110.310;2023-03-01T04:05:36;18.10;81.10
41722;DHT22;27407;24.142;-110.310;2023-03-01T04:08:03;17.90;81.30
41722;DHT22;27407;24.142;-110.310;2023-03-01T04:10:41;18.00;81.60
41722;DHT22;27407;24.142;-110.310;2023-03-01T04:13:10;17.90;81.80
41722;DHT22;27407;24.142;-110.310;2023-03-01T04:15:38;18.00;82.30
41722;DHT22;27407;24.142;-110.310;2023-03-01T04:18:06;17.80;83.60
41722;DHT22;27407;24.142;-110.310;2023-03-01T04:20:34;17.60;83.10
41722;DHT22;27407;24.142;-110.310;2023-03-01T04:23:04;17.40;83.60
41722;DHT22;27407;24.142;-110.310;2023-03-01T04:28:12;18.20;84.50
41722;DHT22;27407;24.142;-110.310;2023-03-01T04:30:39;16.10;82.90
41722;DHT22;27407;24.142;-110.310;2023-03-01T04:33:08;16.90;83.10
41722;DHT22;27407;24.142;-110.310;2023-03-01T04:35:36;16.90;82.60
41722;DHT22;27407;24.142;-110.310;2023-03-01T04:38:04;17.20;83.70
41722;DHT22;27407;24.142;-110.310;2023-03-01T04:40:31;17.50;83.90
41722;DHT22;27407;24.142;-110.310;2023-03-01T04:42:58;17.20;83.40
41722;DHT22;27407;24.142;-110.310;2023-03-01T04:50:19;17.20;81.40
41722;DHT22;27407;24.142;-110.310;2023-03-01T04:52:50;17.10;80.30
41722;DHT22;27407;24.142;-110.310;2023-03-01T04:57:43;17.00;79.50
41722;DHT22;27407;24.142;-110.310;2023-03-01T05:00:12;16.90;80.10
41722;DHT22;27407;24.142;-110.310;2023-03-01T05:02:57;16.90;80.10
41722;DHT22;27407;24.142;-110.310;2023-03-01T05:05:32;16.80;79.30
41722;DHT22;27407;24.142;-110.310;2023-03-01T05:08:01;16.80;79.60
41722;DHT22;27407;24.142;-110.310;2023-03-01T05:10:30;16.80;78.70
41722;DHT22;27407;24.142;-110.310;2023-03-01T05:12:57;16.70;79.00
41722;DHT22;27407;24.142;-110.310;2023-03-01T05:15:26;16.60;79.40
41722;DHT22;27407;24.142;-110.310;2023-03-01T05:17:54;17.40;79.60
41722;DHT22;27407;24.142;-110.310;2023-03-01T05:20:22;16.50;77.50
41722;DHT22;27407;24.142;-110.310;2023-03-01T05:22:50;16.50;77.70
41722;DHT22;27407;24.142;-110.310;2023-03-01T05:25:16;13.70;76.40
41722;DHT22;27407;24.142;-110.310;2023-03-01T05:30:10;16.10;77.10
41722;DHT22;27407;24.142;-110.310;2023-03-01T05:32:41;16.60;77.30
41722;DHT22;27407;24.142;-110.310;2023-03-01T05:35:11;17.00;77.00
41722;DHT22;27407;24.142;-110.310;2023-03-01T05:37:45;15.80;75.40
41722;DHT22;27407;24.142;-110.310;2023-03-01T05:40:15;16.20;75.30
41722;DHT22;27407;24.142;-110.310;2023-03-01T05:42:54;16.30;75.10
41722;DHT22;27407;24.142;-110.310;2023-03-01T05:45:23;16.30;75.50
41722;DHT22;27407;24.142;-110.310;2023-03-01T05:47:50;16.20;74.60
41722;DHT22;27407;24.142;-110.310;2023-03-01T05:50:22;16.20;75.00
41722;DHT22;27407;24.142;-110.310;2023-03-01T05:53:02;16.10;75.20
41722;DHT22;27407;24.142;-110.310;2023-03-01T05:55:32;17.10;76.20
41722;DHT22;27407;24.142;-110.310;2023-03-01T05:58:00;16.10;76.90
41722;DHT22;27407;24.142;-110.310;2023-03-01T06:00:28;16.50;77.80
41722;DHT22;27407;24.142;-110.310;2023-03-01T06:02:56;14.30;76.50
41722;DHT22;27407;24.142;-110.310;2023-03-01T06:05:24;15.90;77.50
41722;DHT22;27407;24.142;-110.310;2023-03-01T06:10:20;15.70;76.80
41722;DHT22;27407;24.142;-110.310;2023-03-01T06:15:16;15.80;75.70
41722;DHT22;27407;24.142;-110.310;2023-03-01T06:17:46;15.90;76.40
41722;DHT22;27407;24.142;-110.310;2023-03-01T06:20:15;15.60;75.80
41722;DHT22;27407;24.142;-110.310;2023-03-01T06:22:43;16.10;76.70
41722;DHT22;27407;24.142;-110.310;2023-03-01T06:25:11;16.50;77.20
41722;DHT22;27407;24.142;-110.310;2023-03-01T06:27:39;15.20;76.00
41722;DHT22;27407;24.142;-110.310;2023-03-01T06:30:06;15.90;76.10
41722;DHT22;27407;24.142;-110.310;2023-03-01T06:32:34;15.20;76.90
41722;DHT22;27407;24.142;-110.310;2023-03-01T06:44:47;15.10;79.40
41722;DHT22;27407;24.142;-110.310;2023-03-01T06:49:41;14.80;79.30
41722;DHT22;27407;24.142;-110.310;2023-03-01T06:59:28;14.60;80.80
41722;DHT22;27407;24.142;-110.310;2023-03-01T07:09:24;14.60;82.80
41722;DHT22;27407;24.142;-110.310;2023-03-01T07:16:46;14.50;82.60
41722;DHT22;27407;24.142;-110.310;2023-03-01T07:24:07;14.40;81.60
41722;DHT22;27407;24.142;-110.310;2023-03-01T07:29:01;13.80;79.90
41722;DHT22;27407;24.142;-110.310;2023-03-01T07:33:55;14.20;81.70
41722;DHT22;27407;24.142;-110.310;2023-03-01T07:36:22;14.20;82.00
41722;DHT22;27407;24.142;-110.310;2023-03-01T07:38:49;14.40;81.90
41722;DHT22;27407;24.142;-110.310;2023-03-01T07:41:16;14.20;81.80
41722;DHT22;27407;24.142;-110.310;2023-03-01T07:43:45;14.00;81.90
41722;DHT22;27407;24.142;-110.310;2023-03-01T07:51:07;14.40;82.20
41722;DHT22;27407;24.142;-110.310;2023-03-01T07:53:34;14.30;82.60
41722;DHT22;27407;24.142;-110.310;2023-03-01T07:56:06;14.40;83.20
41722;DHT22;27407;24.142;-110.310;2023-03-01T07:58:38;14.70;84.40
41722;DHT22;27407;24.142;-110.310;2023-03-01T08:01:06;14.20;83.80
41722;DHT22;27407;24.142;-110.310;2023-03-01T08:03:35;14.20;83.70
41722;DHT22;27407;24.142;-110.310;2023-03-01T08:06:07;14.10;83.50
41722;DHT22;27407;24.142;-110.310;2023-03-01T08:08:34;14.40;83.70
41722;DHT22;27407;24.142;-110.310;2023-03-01T08:11:03;12.90;81.20
41722;DHT22;27407;24.142;-110.310;2023-03-01T08:13:31;13.40;81.10
41722;DHT22;27407;24.142;-110.310;2023-03-01T08:16:02;14.20;82.10
41722;DHT22;27407;24.142;-110.310;2023-03-01T08:35:36;14.10;84.00
41722;DHT22;27407;24.142;-110.310;2023-03-01T08:40:29;14.10;83.60
41722;DHT22;27407;24.142;-110.310;2023-03-01T08:47:52;14.20;85.40
41722;DHT22;27407;24.142;-110.310;2023-03-01T09:00:08;13.70;86.90
41722;DHT22;27407;24.142;-110.310;2023-03-01T09:05:01;13.80;87.00
41722;DHT22;27407;24.142;-110.310;2023-03-01T09:07:28;15.40;88.20
41722;DHT22;27407;24.142;-110.310;2023-03-01T09:12:22;13.90;87.80
41722;DHT22;27407;24.142;-110.310;2023-03-01T09:14:58;13.90;88.50
41722;DHT22;27407;24.142;-110.310;2023-03-01T09:22:25;15.00;90.30
41722;DHT22;27407;24.142;-110.310;2023-03-01T09:32:12;15.20;91.80
41722;DHT22;27407;24.142;-110.310;2023-03-01T09:44:55;15.40;92.70
41722;DHT22;27407;24.142;-110.310;2023-03-01T09:47:29;15.20;92.70
41722;DHT22;27407;24.142;-110.310;2023-03-01T09:53:00;15.50;94.20
41722;DHT22;27407;24.142;-110.310;2023-03-01T09:55:51;14.90;93.20
41722;DHT22;27407;24.142;-110.310;2023-03-01T10:02:03;15.30;92.70
41722;DHT22;27407;24.142;-110.310;2023-03-01T10:04:51;15.30;92.70
41722;DHT22;27407;24.142;-110.310;2023-03-01T10:09:54;14.80;92.00
41722;DHT22;27407;24.142;-110.310;2023-03-01T10:12:33;14.90;92.20
41722;DHT22;27407;24.142;-110.310;2023-03-01T10:17:50;14.60;92.90
41722;DHT22;27407;24.142;-110.310;2023-03-01T10:23:09;14.20;92.80
41722;DHT22;27407;24.142;-110.310;2023-03-01T10:30:52;14.40;93.00
41722;DHT22;27407;24.142;-110.310;2023-03-01T10:33:31;14.40;93.10
41722;DHT22;27407;24.142;-110.310;2023-03-01T10:41:00;14.40;93.30
41722;DHT22;27407;24.142;-110.310;2023-03-01T10:43:52;14.50;93.30
41722;DHT22;27407;24.142;-110.310;2023-03-01T10:46:37;14.40;93.00
41722;DHT22;27407;24.142;-110.310;2023-03-01T10:51:44;14.30;93.80
41722;DHT22;27407;24.142;-110.310;2023-03-01T10:54:32;14.40;93.40
41722;DHT22;27407;24.142;-110.310;2023-03-01T10:57:04;14.50;93.20
41722;DHT22;27407;24.142;-110.310;2023-03-01T11:02:17;14.20;92.70
41722;DHT22;27407;24.142;-110.310;2023-03-01T11:05:15;14.20;92.60
41722;DHT22;27407;24.142;-110.310;2023-03-01T11:07:52;14.20;92.90
41722;DHT22;27407;24.142;-110.310;2023-03-01T11:12:52;14.20;92.70
41722;DHT22;27407;24.142;-110.310;2023-03-01T11:15:25;14.30;92.60
41722;DHT22;27407;24.142;-110.310;2023-03-01T11:17:52;14.30;92.70
41722;DHT22;27407;24.142;-110.310;2023-03-01T11:23:14;14.20;92.90
41722;DHT22;27407;24.142;-110.310;2023-03-01T11:25:46;14.40;93.60
41722;DHT22;27407;24.142;-110.310;2023-03-01T11:28:17;15.70;95.20
41722;DHT22;27407;24.142;-110.310;2023-03-01T11:31:02;14.70;95.60
41722;DHT22;27407;24.142;-110.310;2023-03-01T11:39:00;15.40;96.50
41722;DHT22;27407;24.142;-110.310;2023-03-01T11:41:31;14.70;96.00
41722;DHT22;27407;24.142;-110.310;2023-03-01T11:44:11;15.90;96.10
41722;DHT22;27407;24.142;-110.310;2023-03-01T11:47:03;15.50;95.90
41722;DHT22;27407;24.142;-110.310;2023-03-01T12:01:13;15.60;93.00
41722;DHT22;27407;24.142;-110.310;2023-03-01T12:06:46;15.20;92.60
41722;DHT22;27407;24.142;-110.310;2023-03-01T12:36:46;14.60;94.40
41722;DHT22;27407;24.142;-110.310;2023-03-01T12:39:48;14.50;94.90
41722;DHT22;27407;24.142;-110.310;2023-03-01T12:51:01;14.00;95.60
41722;DHT22;27407;24.142;-110.310;2023-03-01T12:53:36;13.80;95.40
41722;DHT22;27407;24.142;-110.310;2023-03-01T12:56:07;13.80;95.00
41722;DHT22;27407;24.142;-110.310;2023-03-01T13:01:54;14.10;94.70
41722;DHT22;27407;24.142;-110.310;2023-03-01T13:17:52;14.30;95.30
41722;DHT22;27407;24.142;-110.310;2023-03-01T13:20:23;14.00;95.50
41722;DHT22;27407;24.142;-110.310;2023-03-01T13:23:07;13.80;95.90
41722;DHT22;27407;24.142;-110.310;2023-03-01T13:31:06;13.90;96.60
41722;DHT22;27407;24.142;-110.310;2023-03-01T13:36:00;14.60;97.60
41722;DHT22;27407;24.142;-110.310;2023-03-01T13:41:17;13.90;97.90
41722;DHT22;27407;24.142;-110.310;2023-03-01T13:43:46;14.30;98.20
41722;DHT22;27407;24.142;-110.310;2023-03-01T13:46:23;13.50;98.10
41722;DHT22;27407;24.142;-110.310;2023-03-01T13:48:53;13.40;98.10
41722;DHT22;27407;24.142;-110.310;2023-03-01T13:51:25;13.60;98.20
41722;DHT22;27407;24.142;-110.310;2023-03-01T13:53:53;13.70;98.50
41722;DHT22;27407;24.142;-110.310;2023-03-01T13:56:27;13.70;99.40
41722;DHT22;27407;24.142;-110.310;2023-03-01T13:58:59;13.20;99.30
41722;DHT22;27407;24.142;-110.310;2023-03-01T14:01:30;13.90;99.60
41722;DHT22;27407;24.142;-110.310;2023-03-01T14:03:58;14.00;99.50
41722;DHT22;27407;24.142;-110.310;2023-03-01T14:06:27;13.10;99.10
41722;DHT22;27407;24.142;-110.310;2023-03-01T14:09:25;13.90;98.50
41722;DHT22;27407;24.142;-110.310;2023-03-01T14:14:59;14.20;98.60
41722;DHT22;27407;24.142;-110.310;2023-03-01T14:17:47;14.30;98.50
41722;DHT22;27407;24.142;-110.310;2023-03-01T14:20:24;14.60;98.20
41722;DHT22;27407;24.142;-110.310;2023-03-01T14:23:02;14.70;97.90
41722;DHT22;27407;24.142;-110.310;2023-03-01T14:25:57;14.90;97.80
41722;DHT22;27407;24.142;-110.310;2023-03-01T14:28:29;15.10;97.50
41722;DHT22;27407;24.142;-110.310;2023-03-01T14:30:58;15.40;97.10
41722;DHT22;27407;24.142;-110.310;2023-03-01T14:33:27;15.60;96.50
41722;DHT22;27407;24.142;-110.310;2023-03-01T14:41:15;16.00;95.50
41722;DHT22;27407;24.142;-110.310;2023-03-01T14:43:51;16.20;95.80
41722;DHT22;27407;24.142;-110.310;2023-03-01T14:46:36;16.50;97.10
41722;DHT22;27407;24.142;-110.310;2023-03-01T14:51:41;18.80;98.00
41722;DHT22;27407;24.142;-110.310;2023-03-01T14:57:02;17.30;95.70
41722;DHT22;27407;24.142;-110.310;2023-03-01T14:59:29;18.10;95.70
41722;DHT22;27407;24.142;-110.310;2023-03-01T15:01:57;17.10;94.70
41722;DHT22;27407;24.142;-110.310;2023-03-01T15:04:24;15.60;94.50
41722;DHT22;27407;24.142;-110.310;2023-03-01T15:06:53;17.10;94.80
41722;DHT22;27407;24.142;-110.310;2023-03-01T15:09:21;17.40;95.00
41722;DHT22;27407;24.142;-110.310;2023-03-01T15:14:40;17.50;94.90
41722;DHT22;27407;24.142;-110.310;2023-03-01T15:22:24;19.10;94.80
41722;DHT22;27407;24.142;-110.310;2023-03-01T15:24:52;18.50;94.30
41722;DHT22;27407;24.142;-110.310;2023-03-01T15:27:24;18.70;93.70
41722;DHT22;27407;24.142;-110.310;2023-03-01T15:29:59;18.50;93.40
41722;DHT22;27407;24.142;-110.310;2023-03-01T15:32:36;18.50;92.40
41722;DHT22;27407;24.142;-110.310;2023-03-01T15:38:30;18.90;92.00
41722;DHT22;27407;24.142;-110.310;2023-03-01T15:41:00;19.20;91.00
41722;DHT22;27407;24.142;-110.310;2023-03-01T15:43:42;19.40;91.10
41722;DHT22;27407;24.142;-110.310;2023-03-01T15:46:30;19.70;91.20
41722;DHT22;27407;24.142;-110.310;2023-03-01T15:49:03;20.10;90.70
41722;DHT22;27407;24.142;-110.310;2023-03-01T15:51:34;20.30;90.50
41722;DHT22;27407;24.142;-110.310;2023-03-01T15:54:22;20.60;90.00
41722;DHT22;27407;24.142;-110.310;2023-03-01T15:59:17;20.40;89.80
41722;DHT22;27407;24.142;-110.310;2023-03-01T16:01:44;20.70;90.70
41722;DHT22;27407;24.142;-110.310;2023-03-01T16:04:13;20.90;90.70
41722;DHT22;27407;24.142;-110.310;2023-03-01T16:06:47;21.00;90.50
41722;DHT22;27407;24.142;-110.310;2023-03-01T16:09:22;21.10;90.10
41722;DHT22;27407;24.142;-110.310;2023-03-01T16:11:49;20.60;90.50
41722;DHT22;27407;24.142;-110.310;2023-03-01T16:14:16;21.00;90.20
41722;DHT22;27407;24.142;-110.310;2023-03-01T16:16:43;21.00;90.20
41722;DHT22;27407;24.142;-110.310;2023-03-01T16:19:11;22.00;90.10
41722;DHT22;27407;24.142;-110.310;2023-03-01T16:24:05;21.20;88.70
41722;DHT22;27407;24.142;-110.310;2023-03-01T16:26:32;21.30;87.70
41722;DHT22;27407;24.142;-110.310;2023-03-01T16:33:57;21.40;87.20
41722;DHT22;27407;24.142;-110.310;2023-03-01T16:36:26;21.50;87.90
41722;DHT22;27407;24.142;-110.310;2023-03-01T16:38:55;22.30;90.30
41722;DHT22;27407;24.142;-110.310;2023-03-01T16:41:30;21.30;91.20
41722;DHT22;27407;24.142;-110.310;2023-03-01T16:46:27;21.30;92.30
41722;DHT22;27407;24.142;-110.310;2023-03-01T16:48:54;21.40;92.40
41722;DHT22;27407;24.142;-110.310;2023-03-01T16:51:22;22.20;92.20
41722;DHT22;27407;24.142;-110.310;2023-03-01T16:53:50;21.70;92.30
41722;DHT22;27407;24.142;-110.310;2023-03-01T16:56:18;21.60;92.40
41722;DHT22;27407;24.142;-110.310;2023-03-01T16:58:45;21.60;92.30
41722;DHT22;27407;24.142;-110.310;2023-03-01T17:01:17;21.80;93.10
41722;DHT22;27407;24.142;-110.310;2023-03-01T17:03:45;21.90;92.90
41722;DHT22;27407;24.142;-110.310;2023-03-01T17:06:15;22.10;92.70
41722;DHT22;27407;24.142;-110.310;2023-03-01T17:08:43;22.00;92.60
41722;DHT22;27407;24.142;-110.310;2023-03-01T17:11:16;22.20;92.60
41722;DHT22;27407;24.142;-110.310;2023-03-01T17:16:19;22.70;92.30
41722;DHT22;27407;24.142;-110.310;2023-03-01T17:18:46;22.00;91.70
41722;DHT22;27407;24.142;-110.310;2023-03-01T17:21:13;23.70;92.20
41722;DHT22;27407;24.142;-110.310;2023-03-01T17:23:42;22.50;91.20
41722;DHT22;27407;24.142;-110.310;2023-03-01T17:26:10;22.80;91.70
41722;DHT22;27407;24.142;-110.310;2023-03-01T17:28:37;22.80;90.90
41722;DHT22;27407;24.142;-110.310;2023-03-01T17:31:05;23.30;90.60
41722;DHT22;27407;24.142;-110.310;2023-03-01T17:35:59;22.90;90.40
41722;DHT22;27407;24.142;-110.310;2023-03-01T17:38:27;23.10;90.50
41722;DHT22;27407;24.142;-110.310;2023-03-01T17:43:33;23.40;90.50
41722;DHT22;27407;24.142;-110.310;2023-03-01T17:46:00;23.20;90.30
41722;DHT22;27407;24.142;-110.310;2023-03-01T17:48:27;23.00;90.00
41722;DHT22;27407;24.142;-110.310;2023-03-01T17:50:53;23.30;89.30
41722;DHT22;27407;24.142;-110.310;2023-03-01T17:53:21;23.40;89.70
41722;DHT22;27407;24.142;-110.310;2023-03-01T17:55:48;23.60;87.30
41722;DHT22;27407;24.142;-110.310;2023-03-01T17:58:19;23.70;85.80
41722;DHT22;27407;24.142;-110.310;2023-03-01T18:00:49;23.90;85.30
41722;DHT22;27407;24.142;-110.310;2023-03-01T18:03:16;23.80;85.10
41722;DHT22;27407;24.142;-110.310;2023-03-01T18:05:42;24.20;85.90
41722;DHT22;27407;24.142;-110.310;2023-03-01T18:13:03;25.00;81.10
41722;DHT22;27407;24.142;-110.310;2023-03-01T18:15:31;25.00;80.40
41722;DHT22;27407;24.142;-110.310;2023-03-01T18:20:24;25.40;78.40
41722;DHT22;27407;24.142;-110.310;2023-03-01T18:25:19;25.40;77.30
41722;DHT22;27407;24.142;-110.310;2023-03-01T18:30:14;25.70;77.90
41722;DHT22;27407;24.142;-110.310;2023-03-01T18:32:40;25.70;76.20
41722;DHT22;27407;24.142;-110.310;2023-03-01T18:35:09;25.90;76.50
41722;DHT22;27407;24.142;-110.310;2023-03-01T18:40:03;26.10;73.50
41722;DHT22;27407;24.142;-110.310;2023-03-01T18:42:30;26.40;75.60
41722;DHT22;27407;24.142;-110.310;2023-03-01T18:44:57;26.00;73.60
41722;DHT22;27407;24.142;-110.310;2023-03-01T18:47:24;26.40;73.50
41722;DHT22;27407;24.142;-110.310;2023-03-01T18:54:44;26.20;69.80
41722;DHT22;27407;24.142;-110.310;2023-03-01T19:06:57;27.10;72.50
41722;DHT22;27407;24.142;-110.310;2023-03-01T19:09:27;26.60;69.00
41722;DHT22;27407;24.142;-110.310;2023-03-01T19:11:54;26.70;75.70
41722;DHT22;27407;24.142;-110.310;2023-03-01T19:14:23;28.20;76.20
41722;DHT22;27407;24.142;-110.310;2023-03-01T19:16:50;27.70;74.50
41722;DHT22;27407;24.142;-110.310;2023-03-01T19:21:43;27.40;73.10
41722;DHT22;27407;24.142;-110.310;2023-03-01T19:24:11;27.50;73.00
41722;DHT22;27407;24.142;-110.310;2023-03-01T19:26:38;27.60;72.70
41722;DHT22;27407;24.142;-110.310;2023-03-01T19:29:07;28.30;72.30
41722;DHT22;27407;24.142;-110.310;2023-03-01T19:31:39;27.60;72.20
41722;DHT22;27407;24.142;-110.310;2023-03-01T19:39:05;27.70;70.20
41722;DHT22;27407;24.142;-110.310;2023-03-01T19:41:32;27.90;69.50
41722;DHT22;27407;24.142;-110.310;2023-03-01T19:51:26;27.50;69.60
41722;DHT22;27407;24.142;-110.310;2023-03-01T19:56:19;28.10;68.30
41722;DHT22;27407;24.142;-110.310;2023-03-01T19:58:46;27.30;69.10
41722;DHT22;27407;24.142;-110.310;2023-03-01T20:01:17;26.70;69.80
41722;DHT22;27407;24.142;-110.310;2023-03-01T20:03:44;26.60;70.80
41722;DHT22;27407;24.142;-110.310;2023-03-01T20:06:14;26.90;70.90
41722;DHT22;27407;24.142;-110.310;2023-03-01T20:08:42;27.70;71.60
41722;DHT22;27407;24.142;-110.310;2023-03-01T20:11:11;28.50;68.60
41722;DHT22;27407;24.142;-110.310;2023-03-01T20:13:38;29.00;66.50
41722;DHT22;27407;24.142;-110.310;2023-03-01T20:16:05;29.10;65.30
41722;DHT22;27407;24.142;-110.310;2023-03-01T20:18:32;29.30;64.00
41722;DHT22;27407;24.142;-110.310;2023-03-01T20:21:00;29.80;63.10
41722;DHT22;27407;24.142;-110.310;2023-03-01T20:23:27;30.70;61.80
41722;DHT22;27407;24.142;-110.310;2023-03-01T20:26:08;31.50;61.70
41722;DHT22;27407;24.142;-110.310;2023-03-01T20:28:40;31.50;62.10
41722;DHT22;27407;24.142;-110.310;2023-03-01T20:31:09;32.50;59.80
41722;DHT22;27407;24.142;-110.310;2023-03-01T20:33:39;32.40;54.70
41722;DHT22;27407;24.142;-110.310;2023-03-01T20:36:07;32.60;53.10
41722;DHT22;27407;24.142;-110.310;2023-03-01T20:38:34;35.10;52.30
41722;DHT22;27407;24.142;-110.310;2023-03-01T20:41:04;32.10;48.40
41722;DHT22;27407;24.142;-110.310;2023-03-01T20:43:31;31.50;48.60
41722;DHT22;27407;24.142;-110.310;2023-03-01T20:50:51;31.20;47.30
41722;DHT22;27407;24.142;-110.310;2023-03-01T20:53:18;30.80;45.40
41722;DHT22;27407;24.142;-110.310;2023-03-01T20:58:11;28.80;43.10
41722;DHT22;27407;24.142;-110.310;2023-03-01T21:03:06;29.60;43.60
41722;DHT22;27407;24.142;-110.310;2023-03-01T21:07:59;29.80;43.10
41722;DHT22;27407;24.142;-110.310;2023-03-01T21:10:29;30.30;42.90
41722;DHT22;27407;24.142;-110.310;2023-03-01T21:12:56;29.70;43.10
41722;DHT22;27407;24.142;-110.310;2023-03-01T21:15:22;31.00;42.30
41722;DHT22;27407;24.142;-110.310;2023-03-01T21:20:20;32.30;41.20
41722;DHT22;27407;24.142;-110.310;2023-03-01T21:30:12;32.00;38.30
41722;DHT22;27407;24.142;-110.310;2023-03-01T21:32:39;31.20;38.40
41722;DHT22;27407;24.142;-110.310;2023-03-01T21:35:06;31.10;39.60
41722;DHT22;27407;24.142;-110.310;2023-03-01T21:37:33;29.90;39.70
41722;DHT22;27407;24.142;-110.310;2023-03-01T21:39:59;30.40;39.80
41722;DHT22;27407;24.142;-110.310;2023-03-01T21:42:26;30.10;41.60